Time;durP1;ratioP1;P1;durP2;ratioP2;P2;SDS_P1;SDS_P2;PMS_P1;PMS_P2;Temp;Humidity;BMP_temperature;BMP_pressure;BME280_temperature;BME280_humidity;BME280_pressure;Samples;Min_cycle;Max_cycle;Signal;HPM_P1;HPM_P2
2023/06/29 00:02:12;;;;;;;31.85;15.38;;;18.40;98.80;;;;;;4973024;28;20038;-81
2023/06/29 00:04:38;;;;;;;36.15;16.20;;;18.30;98.80;;;;;;4972587;28;20482;-82
2023/06/29 00:07:03;;;;;;;32.20;16.45;;;18.30;98.90;;;;;;4971154;28;20475;-80
2023/06/29 00:09:29;;;;;;;38.10;16.70;;;18.30;98.70;;;;;;4972661;28;20058;-81
2023/06/29 00:11:55;;;;;;;32.30;16.80;;;18.30;99.10;;;;;;4973112;28;20019;-81
2023/06/29 00:14:20;;;;;;;36.70;17.33;;;18.20;98.90;;;;;;4972790;28;20058;-80
2023/06/29 00:16:50;;;;;;;35.55;16.48;;;18.30;99.00;;;;;;4972179;28;20117;-81
2023/06/29 00:19:16;;;;;;;34.28;16.30;;;18.20;99.00;;;;;;4972837;28;20061;-80
2023/06/29 00:21:42;;;;;;;31.38;16.55;;;18.20;99.00;;;;;;4971438;28;20054;-81
2023/06/29 00:24:11;;;;;;;38.40;17.27;;;18.30;99.00;;;;;;4971429;28;20483;-80
2023/06/29 00:26:38;;;;;;;35.67;17.83;;;18.20;99.00;;;;;;4975574;28;20023;-81
2023/06/29 00:29:04;;;;;;;29.52;16.48;;;18.20;99.00;;;;;;4971531;28;20019;-81
2023/06/29 00:31:30;;;;;;;30.40;17.00;;;18.20;99.00;;;;;;4975494;28;20400;-81
2023/06/29 00:33:55;;;;;;;35.42;17.52;;;18.20;99.00;;;;;;4972622;28;20479;-81
2023/06/29 00:36:21;;;;;;;37.08;18.27;;;18.20;99.00;;;;;;4972246;28;20031;-81
2023/06/29 00:38:47;;;;;;;31.38;16.35;;;18.20;99.00;;;;;;4972252;28;20488;-82
2023/06/29 00:41:12;;;;;;;28.33;16.40;;;18.20;99.20;;;;;;4972340;28;20061;-82
2023/06/29 00:43:43;;;;;;;29.38;16.20;;;18.20;99.00;;;;;;4970715;28;20393;-80
2023/06/29 00:46:10;;;;;;;31.40;16.40;;;18.20;99.20;;;;;;4970141;28;20110;-81
2023/06/29 00:48:37;;;;;;;41.65;18.35;;;18.20;99.00;;;;;;4970978;28;20031;-81
2023/06/29 00:51:06;;;;;;;41.67;19.25;;;18.20;99.00;;;;;;4970919;28;20019;-83
2023/06/29 00:53:32;;;;;;;36.75;19.10;;;18.20;99.10;;;;;;4970345;28;20030;-82
2023/06/29 00:55:58;;;;;;;39.92;18.60;;;18.20;99.20;;;;;;4986066;28;20019;-80
2023/06/29 00:58:25;;;;;;;41.58;18.52;;;18.20;99.20;;;;;;4971571;28;20086;-81
2023/06/29 01:00:50;;;;;;;36.05;16.83;;;18.20;99.50;;;;;;4971568;28;20073;-81
2023/06/29 01:03:16;;;;;;;42.22;18.90;;;18.20;99.20;;;;;;4986182;28;20383;-80
2023/06/29 01:05:45;;;;;;;34.58;17.65;;;18.20;99.30;;;;;;4971489;28;20464;-80
2023/06/29 01:08:18;;;;;;;37.35;18.85;;;18.10;99.30;;;;;;4995539;23;20015;-79
2023/06/29 01:10:46;;;;;;;32.72;18.55;;;18.10;99.30;;;;;;5009682;28;20089;-78
2023/06/29 01:13:14;;;;;;;43.28;19.05;;;18.10;99.30;;;;;;5006538;28;20033;-79
2023/06/29 01:15:41;;;;;;;36.95;19.08;;;18.10;99.40;;;;;;5010902;28;20135;-78
2023/06/29 01:18:07;;;;;;;38.80;18.60;;;18.10;99.30;;;;;;5008981;28;20042;-78
2023/06/29 01:20:33;;;;;;;37.30;18.20;;;18.10;99.30;;;;;;4994782;28;20026;-79
2023/06/29 01:23:17;;;;;;;38.08;19.65;;;18.10;99.40;;;;;;4991976;28;20364;-78
2023/06/29 01:25:42;;;;;;;30.20;17.95;;;18.10;99.50;;;;;;5006886;28;20030;-79
2023/06/29 01:28:09;;;;;;;38.17;18.67;;;18.00;99.40;;;;;;5006841;28;20026;-79
2023/06/29 01:30:48;;;;;;;42.22;19.27;;;18.10;99.40;;;;;;4989811;28;20023;-79
2023/06/29 01:33:15;;;;;;;35.05;17.45;;;18.00;99.40;;;;;;4991585;28;20019;-78
2023/06/29 01:35:41;;;;;;;33.28;16.90;;;18.10;99.40;;;;;;4991379;28;20146;-78
2023/06/29 01:38:14;;;;;;;37.33;18.02;;;18.10;99.20;;;;;;4991664;28;20034;-77
2023/06/29 01:40:43;;;;;;;40.70;17.38;;;18.10;99.40;;;;;;4991703;28;20239;-78
2023/06/29 01:43:09;;;;;;;27.65;16.05;;;18.20;99.20;;;;;;4991843;28;20026;-78
2023/06/29 01:45:36;;;;;;;32.10;16.45;;;18.20;99.20;;;;;;4991425;28;20102;-78
2023/06/29 01:48:03;;;;;;;27.98;16.55;;;18.20;99.20;;;;;;4991644;28;20550;-78
2023/06/29 01:50:29;;;;;;;35.33;17.80;;;18.20;99.20;;;;;;4991677;28;20655;-78
2023/06/29 01:52:55;;;;;;;29.35;16.10;;;18.20;99.20;;;;;;4991641;28;20025;-78
2023/06/29 01:55:20;;;;;;;27.83;16.65;;;18.30;99.10;;;;;;4991239;28;20038;-78
2023/06/29 01:57:46;;;;;;;27.77;15.60;;;18.30;99.10;;;;;;4991416;28;20056;-77
2023/06/29 02:00:12;;;;;;;28.48;16.33;;;18.30;99.20;;;;;;4989179;28;20105;-78
2023/06/29 02:02:38;;;;;;;29.13;17.25;;;18.40;99.10;;;;;;4988478;28;20117;-77
2023/06/29 02:05:04;;;;;;;34.55;17.38;;;18.30;98.90;;;;;;4991094;28;20437;-77
2023/06/29 02:07:30;;;;;;;31.55;17.63;;;18.30;98.90;;;;;;4991401;28;20050;-78
2023/06/29 02:09:55;;;;;;;31.45;17.77;;;18.40;99.00;;;;;;5009520;23;20045;-80
2023/06/29 02:12:21;;;;;;;33.10;18.10;;;18.40;98.90;;;;;;4990845;28;20022;-81
2023/06/29 02:14:47;;;;;;;35.17;18.90;;;18.40;98.80;;;;;;4992297;28;20073;-80
2023/06/29 02:17:12;;;;;;;31.83;18.17;;;18.30;98.90;;;;;;4992488;28;20031;-80
2023/06/29 02:19:38;;;;;;;28.63;16.73;;;18.30;99.00;;;;;;4979779;28;20419;-80
2023/06/29 02:22:04;;;;;;;28.60;16.10;;;18.30;99.10;;;;;;4974395;28;20527;-81
2023/06/29 02:24:29;;;;;;;28.92;16.08;;;18.30;99.10;;;;;;4974150;28;20506;-80
2023/06/29 02:26:55;;;;;;;34.25;17.25;;;18.30;99.00;;;;;;4973512;28;20023;-81
2023/06/29 02:29:21;;;;;;;29.58;16.95;;;18.20;99.10;;;;;;4974475;28;20014;-81
2023/06/29 02:31:47;;;;;;;29.27;17.75;;;18.20;99.30;;;;;;4973595;28;20119;-80
2023/06/29 02:34:12;;;;;;;29.48;17.02;;;18.20;98.90;;;;;;4974728;28;20106;-80
2023/06/29 02:36:39;;;;;;;31.63;15.82;;;18.20;99.00;;;;;;4974080;28;20027;-80
2023/06/29 02:39:04;;;;;;;27.65;17.00;;;18.20;99.00;;;;;;4974137;28;20018;-80
2023/06/29 02:41:30;;;;;;;34.15;17.58;;;18.20;99.00;;;;;;4974061;28;20023;-81
2023/06/29 02:43:56;;;;;;;31.83;17.35;;;18.30;98.70;;;;;;4973385;28;20069;-81
2023/06/29 02:46:22;;;;;;;27.83;17.00;;;18.20;98.70;;;;;;4973542;28;20476;-81
2023/06/29 02:48:47;;;;;;;26.30;15.90;;;18.20;98.60;;;;;;4974175;28;20054;-81
2023/06/29 02:51:13;;;;;;;26.38;15.63;;;18.20;98.60;;;;;;4974147;28;20038;-80
2023/06/29 02:53:38;;;;;;;31.58;16.73;;;18.20;98.60;;;;;;4988479;28;20034;-81
2023/06/29 02:56:04;;;;;;;30.35;16.50;;;18.20;98.70;;;;;;4973870;28;20027;-81
2023/06/29 02:58:30;;;;;;;36.30;17.15;;;18.20;98.90;;;;;;4973340;28;20387;-81
2023/06/29 03:00:56;;;;;;;27.38;16.60;;;18.10;99.00;;;;;;4973608;28;20383;-80
2023/06/29 03:03:21;;;;;;;28.13;16.83;;;18.10;98.90;;;;;;4974224;28;20364;-80
2023/06/29 03:05:47;;;;;;;29.77;15.73;;;18.10;98.80;;;;;;4972673;28;20102;-81
2023/06/29 03:08:12;;;;;;;28.35;14.77;;;18.10;98.90;;;;;;4988851;22;20602;-78
2023/06/29 03:10:38;;;;;;;29.50;16.00;;;18.10;98.90;;;;;;4988219;28;20034;-79
2023/06/29 03:13:04;;;;;;;27.98;15.80;;;18.00;99.00;;;;;;5007545;28;20022;-78
2023/06/29 03:15:29;;;;;;;24.70;16.50;;;18.00;99.00;;;;;;4992783;28;20359;-79
2023/06/29 03:17:55;;;;;;;23.73;15.32;;;18.00;99.00;;;;;;4992909;28;20367;-79
2023/06/29 03:20:21;;;;;;;28.65;16.00;;;18.00;99.20;;;;;;4974463;28;20550;-79
2023/06/29 03:22:46;;;;;;;27.23;15.77;;;18.00;99.20;;;;;;4974117;28;20408;-78
2023/06/29 03:25:12;;;;;;;28.38;16.50;;;18.00;99.20;;;;;;4973519;28;20029;-79
2023/06/29 03:27:37;;;;;;;29.15;16.15;;;18.00;99.30;;;;;;4973460;28;20483;-79
2023/06/29 03:30:04;;;;;;;30.10;16.35;;;18.00;99.30;;;;;;4974905;28;20361;-79
2023/06/29 03:32:29;;;;;;;26.52;15.52;;;18.00;99.30;;;;;;4978374;28;20039;-78
2023/06/29 03:34:55;;;;;;;33.97;15.98;;;18.00;99.30;;;;;;4973801;28;20106;-78
2023/06/29 03:37:21;;;;;;;31.55;15.65;;;18.00;99.20;;;;;;4974312;28;20046;-78
2023/06/29 03:39:47;;;;;;;33.08;16.45;;;18.00;99.20;;;;;;4973944;28;20019;-79
2023/06/29 03:42:12;;;;;;;25.60;15.32;;;18.10;99.10;;;;;;4974351;28;20034;-78
2023/06/29 03:44:39;;;;;;;27.27;15.45;;;18.10;99.10;;;;;;4974127;28;20042;-79
2023/06/29 03:47:06;;;;;;;29.27;15.73;;;18.10;99.00;;;;;;4973518;28;20026;-78
2023/06/29 03:49:32;;;;;;;25.83;15.40;;;18.10;99.00;;;;;;4979900;28;20019;-79
2023/06/29 03:51:58;;;;;;;24.35;14.52;;;18.10;99.00;;;;;;4973344;28;20019;-78
2023/06/29 03:54:23;;;;;;;29.55;16.08;;;18.00;99.00;;;;;;4973117;28;20022;-78
2023/06/29 03:56:49;;;;;;;29.77;17.20;;;18.00;99.20;;;;;;4988699;28;20475;-78
2023/06/29 03:59:15;;;;;;;34.28;18.15;;;18.00;99.20;;;;;;4973622;28;20034;-78
2023/06/29 04:01:40;;;;;;;27.50;15.55;;;18.00;99.00;;;;;;4973316;28;20434;-78
2023/06/29 04:04:06;;;;;;;32.20;17.88;;;18.10;99.00;;;;;;4980222;28;20027;-78
2023/06/29 04:06:31;;;;;;;32.80;18.48;;;18.10;99.10;;;;;;4973576;28;20045;-79
2023/06/29 04:08:57;;;;;;;28.80;16.58;;;18.00;99.10;;;;;;5000032;22;20053;-80
2023/06/29 04:11:23;;;;;;;29.48;16.13;;;18.10;99.00;;;;;;4992009;28;20026;-80
2023/06/29 04:13:48;;;;;;;28.65;17.00;;;18.20;98.90;;;;;;4992050;28;20096;-81
2023/06/29 04:16:14;;;;;;;35.25;16.45;;;18.20;98.80;;;;;;4992134;28;20037;-82
2023/06/29 04:18:40;;;;;;;32.58;17.02;;;18.10;98.50;;;;;;4986049;28;20089;-81
2023/06/29 04:21:05;;;;;;;26.30;15.88;;;18.10;98.30;;;;;;4972072;28;20027;-82
2023/06/29 04:23:31;;;;;;;29.25;15.02;;;18.10;98.20;;;;;;4972261;28;20030;-81
2023/06/29 04:25:57;;;;;;;28.10;16.77;;;18.10;97.90;;;;;;4987016;28;20030;-81
2023/06/29 04:28:23;;;;;;;25.27;14.55;;;18.10;98.00;;;;;;4971759;28;20113;-81
2023/06/29 04:30:48;;;;;;;26.95;15.68;;;18.10;98.20;;;;;;4971088;28;20114;-83
2023/06/29 04:33:15;;;;;;;25.85;13.98;;;18.00;98.00;;;;;;4967551;28;20053;-80
2023/06/29 04:35:42;;;;;;;24.55;14.25;;;18.00;97.80;;;;;;4969674;28;20034;-81
2023/06/29 04:38:09;;;;;;;27.20;15.18;;;18.00;97.90;;;;;;4972019;28;20045;-80
2023/06/29 04:40:35;;;;;;;23.20;13.68;;;18.00;97.80;;;;;;4972087;28;20022;-80
2023/06/29 04:43:02;;;;;;;24.50;13.00;;;18.00;97.60;;;;;;4971678;28;20037;-81
2023/06/29 04:45:28;;;;;;;24.50;13.57;;;18.00;97.90;;;;;;4986498;28;20022;-82
2023/06/29 04:47:56;;;;;;;23.13;12.05;;;18.00;97.90;;;;;;4971617;28;20019;-81
2023/06/29 04:50:25;;;;;;;22.55;12.18;;;17.90;97.90;;;;;;4970138;28;20026;-82
2023/06/29 04:52:53;;;;;;;20.95;11.23;;;17.90;97.80;;;;;;4986533;28;20031;-81
2023/06/29 04:55:18;;;;;;;21.77;11.93;;;17.90;98.30;;;;;;4986871;28;20031;-81
2023/06/29 04:57:44;;;;;;;20.85;12.15;;;17.80;98.60;;;;;;4970480;28;20084;-82
2023/06/29 05:00:11;;;;;;;25.40;12.93;;;17.80;98.90;;;;;;4971622;28;20041;-82
2023/06/29 05:02:40;;;;;;;23.88;12.50;;;17.80;99.30;;;;;;4971312;28;20023;-82
2023/06/29 05:05:07;;;;;;;25.23;12.20;;;17.80;99.20;;;;;;4971104;28;20026;-81
2023/06/29 05:07:33;;;;;;;21.98;11.40;;;17.70;99.60;;;;;;4971443;28;20030;-82
2023/06/29 05:09:59;;;;;;;20.58;11.90;;;17.80;99.30;;;;;;5019614;23;20049;-79
2023/06/29 05:12:25;;;;;;;23.15;12.48;;;17.80;99.60;;;;;;5010596;28;20026;-78
2023/06/29 05:14:51;;;;;;;25.98;13.13;;;17.80;99.70;;;;;;5010777;28;20029;-79
2023/06/29 05:17:19;;;;;;;23.35;12.85;;;17.80;99.90;;;;;;5010886;28;20390;-78
2023/06/29 05:19:45;;;;;;;24.40;12.25;;;17.80;99.70;;;;;;4998646;28;20029;-78
2023/06/29 05:22:11;;;;;;;25.15;12.57;;;17.80;99.70;;;;;;4992122;28;20053;-78
2023/06/29 05:24:37;;;;;;;18.90;11.88;;;17.80;99.80;;;;;;4991322;28;20022;-78
2023/06/29 05:27:04;;;;;;;19.52;12.00;;;17.80;99.70;;;;;;4984781;28;20026;-78
2023/06/29 05:29:29;;;;;;;24.02;11.77;;;17.80;99.60;;;;;;4991871;28;20028;-78
2023/06/29 05:31:55;;;;;;;16.45;11.02;;;17.90;99.60;;;;;;4989985;28;20023;-79
2023/06/29 05:34:21;;;;;;;18.75;11.05;;;17.80;99.70;;;;;;4991781;28;20026;-79
2023/06/29 05:36:46;;;;;;;17.58;10.25;;;17.80;99.50;;;;;;4991807;28;20474;-79
2023/06/29 05:39:12;;;;;;;16.42;10.40;;;17.80;99.60;;;;;;4991494;28;20066;-79
2023/06/29 05:41:38;;;;;;;19.70;10.43;;;17.80;99.50;;;;;;5005687;28;20014;-78
2023/06/29 05:44:06;;;;;;;21.17;10.80;;;17.80;99.50;;;;;;4991210;28;20528;-79
2023/06/29 05:46:33;;;;;;;20.13;11.30;;;17.80;99.60;;;;;;5006362;28;20026;-79
2023/06/29 05:48:59;;;;;;;23.02;12.35;;;17.80;99.50;;;;;;5006667;28;20534;-78
2023/06/29 05:51:25;;;;;;;21.75;12.80;;;17.80;99.30;;;;;;4993522;28;20018;-77
2023/06/29 05:53:50;;;;;;;25.70;14.07;;;17.80;99.40;;;;;;4993925;28;20110;-78
2023/06/29 05:56:16;;;;;;;23.13;12.82;;;17.80;99.40;;;;;;4994223;28;20030;-79
2023/06/29 05:58:42;;;;;;;25.48;13.55;;;17.80;99.20;;;;;;4994417;28;20030;-78
2023/06/29 06:01:07;;;;;;;24.52;13.90;;;17.90;99.40;;;;;;4993860;28;20375;-78
2023/06/29 06:03:33;;;;;;;22.77;12.77;;;17.90;99.30;;;;;;4993804;28;20471;-78
2023/06/29 06:05:59;;;;;;;23.45;12.95;;;17.90;99.40;;;;;;4994585;28;20383;-78
2023/06/29 06:08:24;;;;;;;21.52;12.20;;;18.00;99.10;;;;;;5017280;22;20021;-83
2023/06/29 06:10:50;;;;;;;22.40;11.95;;;18.00;99.20;;;;;;4996607;28;20030;-82
2023/06/29 06:13:16;;;;;;;22.27;11.57;;;18.00;99.10;;;;;;4989749;28;20026;-82
2023/06/29 06:15:42;;;;;;;25.58;12.75;;;18.10;99.10;;;;;;4990432;28;20379;-83
2023/06/29 06:18:07;;;;;;;27.50;10.98;;;18.10;98.80;;;;;;4989705;28;20070;-80
2023/06/29 06:20:33;;;;;;;21.63;9.68;;;18.20;98.70;;;;;;4992963;28;20023;-82
2023/06/29 06:22:59;;;;;;;15.90;10.80;;;18.20;98.40;;;;;;5008994;28;20033;-81
2023/06/29 06:25:25;;;;;;;18.77;10.50;;;18.20;98.60;;;;;;5008762;28;20022;-81
2023/06/29 06:27:50;;;;;;;19.13;9.35;;;18.30;98.40;;;;;;4993295;28;20816;-81
2023/06/29 06:30:16;;;;;;;19.58;9.15;;;18.40;97.70;;;;;;4992587;28;20473;-82
2023/06/29 06:32:42;;;;;;;16.67;9.27;;;18.50;97.60;;;;;;5008661;28;20022;-81
2023/06/29 06:35:09;;;;;;;17.20;8.80;;;18.50;97.40;;;;;;4993715;28;20391;-82
2023/06/29 06:37:38;;;;;;;16.40;9.60;;;18.40;98.00;;;;;;4993615;28;20093;-80
2023/06/29 06:40:07;;;;;;;18.80;9.48;;;18.50;98.30;;;;;;4990979;28;20014;-81
2023/06/29 06:42:36;;;;;;;20.10;8.75;;;18.50;98.00;;;;;;4993050;28;20026;-80
2023/06/29 06:45:06;;;;;;;15.23;8.63;;;18.60;97.30;;;;;;4993569;28;20085;-81
2023/06/29 06:47:33;;;;;;;22.88;9.95;;;18.60;97.50;;;;;;4992925;28;20360;-81
2023/06/29 06:50:03;;;;;;;17.95;10.05;;;18.60;97.60;;;;;;4993360;28;20018;-81
2023/06/29 06:52:28;;;;;;;14.90;8.82;;;18.60;97.60;;;;;;5008241;28;20410;-82
2023/06/29 06:54:56;;;;;;;15.18;8.48;;;18.60;97.90;;;;;;4993443;28;20077;-83
2023/06/29 06:57:22;;;;;;;12.20;7.25;;;18.60;97.50;;;;;;4993463;28;20491;-82
2023/06/29 06:59:48;;;;;;;13.07;7.90;;;18.60;97.60;;;;;;5008321;28;20034;-82
2023/06/29 07:02:14;;;;;;;13.45;8.30;;;18.60;97.90;;;;;;4992807;28;20475;-83
2023/06/29 07:04:39;;;;;;;16.33;7.18;;;18.50;98.20;;;;;;4993577;28;20022;-86
2023/06/29 07:07:07;;;;;;;10.65;6.40;;;18.50;98.70;;;;;;4993574;28;20497;-87
2023/06/29 07:09:33;;;;;;;14.68;7.07;;;18.40;99.10;;;;;;5013896;23;20729;-80
2023/06/29 07:11:59;;;;;;;8.90;5.40;;;18.40;99.50;;;;;;5005586;28;20026;-79
2023/06/29 07:14:25;;;;;;;9.50;5.50;;;18.50;99.70;;;;;;4989828;28;20026;-80
2023/06/29 07:16:51;;;;;;;9.55;5.07;;;18.50;99.70;;;;;;4990577;28;20042;-80
2023/06/29 07:19:17;;;;;;;8.10;4.07;;;18.50;99.70;;;;;;4990708;28;20018;-80
2023/06/29 07:21:43;;;;;;;6.88;3.40;;;18.60;99.30;;;;;;4990467;28;20065;-79
2023/06/29 07:24:09;;;;;;;4.35;3.25;;;18.70;99.30;;;;;;4990884;28;20552;-80
2023/06/29 07:26:36;;;;;;;5.72;3.50;;;18.60;98.30;;;;;;4990586;28;20081;-80
2023/06/29 07:29:04;;;;;;;2.90;1.92;;;18.50;99.40;;;;;;4992340;28;20019;-80
2023/06/29 07:31:29;;;;;;;2.47;1.52;;;18.40;98.80;;;;;;5005787;28;20130;-79
2023/06/29 07:33:56;;;;;;;1.50;1.02;;;18.20;98.60;;;;;;4992310;28;20027;-79
2023/06/29 07:36:24;;;;;;;1.70;1.00;;;18.10;98.20;;;;;;4992787;28;20030;-79
2023/06/29 07:38:50;;;;;;;1.38;0.85;;;17.90;98.60;;;;;;4991371;28;20049;-79
2023/06/29 07:41:17;;;;;;;1.38;0.80;;;17.70;98.90;;;;;;4992167;28;20467;-78
2023/06/29 07:43:47;;;;;;;1.27;0.50;;;17.70;98.90;;;;;;4992179;28;20026;-79
2023/06/29 07:46:13;;;;;;;0.43;0.30;;;17.50;99.10;;;;;;4992132;28;20093;-79
2023/06/29 07:48:39;;;;;;;0.20;0.20;;;17.40;99.20;;;;;;5006547;28;20105;-78
2023/06/29 07:51:05;;;;;;;0.15;0.15;;;17.30;99.10;;;;;;4991782;28;20030;-79
2023/06/29 07:53:31;;;;;;;0.70;0.20;;;17.30;99.40;;;;;;4990980;28;20030;-79
2023/06/29 07:55:58;;;;;;;0.30;0.30;;;17.30;99.60;;;;;;5007182;28;20018;-79
2023/06/29 07:58:23;;;;;;;0.20;0.20;;;17.30;99.70;;;;;;4991658;28;20043;-80
2023/06/29 08:00:49;;;;;;;4.82;0.40;;;17.30;99.40;;;;;;4991667;28;20019;-79
2023/06/29 08:03:15;;;;;;;0.25;0.25;;;17.30;99.40;;;;;;4990738;28;20022;-82
2023/06/29 08:05:40;;;;;;;0.30;0.30;;;17.20;99.10;;;;;;4994412;28;20026;-88
2023/06/29 08:08:06;;;;;;;1.77;0.38;;;17.10;99.20;;;;;;4991906;28;20112;-85
2023/06/29 08:10:32;;;;;;;2.03;0.47;;;17.10;99.90;;;;;;4992449;28;20030;-86
2023/06/29 08:12:58;;;;;;;1.20;0.50;;;17.10;99.80;;;;;;5007609;28;20018;-85
2023/06/29 08:15:24;;;;;;;0.60;0.47;;;17.10;99.90;;;;;;4992764;28;20058;-79
2023/06/29 08:17:50;;;;;;;0.45;0.40;;;17.00;99.90;;;;;;4991614;28;20471;-80
2023/06/29 08:20:16;;;;;;;1.35;0.50;;;17.10;99.90;;;;;;4991930;28;20027;-85
2023/06/29 08:22:45;;;;;;;1.25;0.60;;;17.10;99.90;;;;;;5006554;28;20030;-86
2023/06/29 08:25:11;;;;;;;3.03;0.77;;;17.10;99.90;;;;;;4992454;28;20022;-83
2023/06/29 08:27:37;;;;;;;1.90;0.88;;;17.10;99.90;;;;;;4991499;28;20026;-85
2023/06/29 08:30:03;;;;;;;1.75;0.77;;;17.10;99.90;;;;;;4991040;28;20050;-87
2023/06/29 08:32:29;;;;;;;0.75;0.50;;;17.10;99.90;;;;;;5006171;28;20068;-83
2023/06/29 08:34:54;;;;;;;1.80;0.90;;;17.10;99.90;;;;;;5006555;28;20153;-84
2023/06/29 08:37:20;;;;;;;3.85;0.60;;;17.20;99.90;;;;;;5006859;28;20049;-83
2023/06/29 08:39:46;;;;;;;1.70;0.52;;;17.30;99.40;;;;;;5026543;22;20035;-86
2023/06/29 08:42:12;;;;;;;1.08;0.93;;;17.40;99.30;;;;;;4997156;28;20034;-90
2023/06/29 08:44:38;;;;;;;0.70;0.70;;;17.60;99.70;;;;;;4992422;28;20072;-86
2023/06/29 08:47:05;;;;;;;1.45;0.50;;;17.70;99.60;;;;;;4992243;28;20097;-88
2023/06/29 08:49:34;;;;;;;2.65;0.93;;;17.90;99.30;;;;;;4992938;28;20019;-88
2023/06/29 08:52:03;;;;;;;3.10;0.60;;;18.00;99.00;;;;;;4984751;28;20026;-85
2023/06/29 08:54:32;;;;;;;1.65;0.40;;;18.10;98.40;;;;;;4990994;28;20014;-90
2023/06/29 08:57:02;;;;;;;0.85;0.43;;;18.10;98.40;;;;;;4990868;28;20113;-87
2023/06/29 08:59:28;;;;;;;0.50;0.40;;;18.20;98.30;;;;;;4991762;28;20029;-89
2023/06/29 09:01:58;;;;;;;0.57;0.57;;;18.10;97.40;;;;;;4991043;28;20025;-86
2023/06/29 09:04:25;;;;;;;0.40;0.40;;;17.90;97.20;;;;;;4991959;28;20433;-90
2023/06/29 09:06:54;;;;;;;3.92;0.45;;;17.90;97.90;;;;;;5007505;28;20018;-88
2023/06/29 09:09:20;;;;;;;0.60;0.47;;;17.80;97.10;;;;;;5001099;28;20498;-89
2023/06/29 09:11:46;;;;;;;1.05;0.38;;;17.80;98.90;;;;;;4992358;28;20022;-88
2023/06/29 09:14:11;;;;;;;0.55;0.30;;;17.90;98.70;;;;;;5006849;28;20402;-86
2023/06/29 09:16:50;;;;;;;0.45;0.43;;;18.10;98.30;;;;;;4992362;28;20049;-88
2023/06/29 09:19:18;;;;;;;0.75;0.30;;;18.40;97.70;;;;;;4992060;28;20022;-92
2023/06/29 09:21:47;;;;;;;0.57;0.40;;;18.60;97.20;;;;;;4992550;28;20026;-87
2023/06/29 09:24:14;;;;;;;0.75;0.30;;;18.70;95.70;;;;;;4992263;28;20034;-90
2023/06/29 09:26:40;;;;;;;0.60;0.40;;;18.90;96.20;;;;;;5010589;28;20026;-91
2023/06/29 09:29:06;;;;;;;0.32;0.32;;;19.40;97.90;;;;;;4996020;28;20027;-89
2023/06/29 09:31:35;;;;;;;1.92;0.50;;;19.70;95.40;;;;;;4994296;28;20073;-93
2023/06/29 09:34:21;;;;;;;0.57;0.57;;;19.60;94.20;;;;;;5011456;28;20018;-90
2023/06/29 09:36:47;;;;;;;1.30;0.68;;;19.50;93.00;;;;;;5011489;28;20032;-91
2023/06/29 09:39:13;;;;;;;0.60;0.60;;;19.00;94.50;;;;;;5023774;22;20084;-86
2023/06/29 09:41:56;;;;;;;0.63;0.60;;;19.10;94.80;;;;;;4981736;28;20086;-82
2023/06/29 09:44:23;;;;;;;1.83;0.57;;;19.50;94.50;;;;;;4976699;28;20025;-85
2023/06/29 09:46:50;;;;;;;0.50;0.50;;;20.10;92.60;;;;;;5010328;28;20105;-84
2023/06/29 09:49:18;;;;;;;0.63;0.63;;;20.80;91.90;;;;;;4979163;28;20066;-85
2023/06/29 09:51:44;;;;;;;0.80;0.65;;;21.00;90.70;;;;;;4974410;28;20030;-87
2023/06/29 09:54:13;;;;;;;0.93;0.57;;;21.00;90.20;;;;;;4974567;28;20027;-82
2023/06/29 09:56:43;;;;;;;1.52;0.77;;;21.00;89.40;;;;;;4967484;28;20057;-85
2023/06/29 09:59:10;;;;;;;1.00;0.75;;;20.90;88.30;;;;;;4974019;28;20055;-84
2023/06/29 10:01:37;;;;;;;0.77;0.75;;;20.80;90.10;;;;;;4974168;28;20065;-86
2023/06/29 10:04:04;;;;;;;1.98;0.90;;;20.70;90.00;;;;;;4973910;28;20027;-82
2023/06/29 10:06:53;;;;;;;1.65;1.20;;;20.70;90.90;;;;;;4973632;28;20463;-84
2023/06/29 10:09:20;;;;;;;1.90;1.17;;;21.20;89.70;;;;;;4974230;28;20146;-85
2023/06/29 10:11:53;;;;;;;1.23;1.13;;;21.60;86.30;;;;;;4973435;28;20030;-82
2023/06/29 10:14:20;;;;;;;1.48;1.05;;;21.60;84.80;;;;;;4972991;28;20027;-82
2023/06/29 10:16:50;;;;;;;3.28;1.25;;;21.20;85.00;;;;;;4974574;28;20027;-83
2023/06/29 10:19:23;;;;;;;1.50;1.30;;;21.60;85.70;;;;;;4974368;28;20027;-80
2023/06/29 10:22:01;;;;;;;1.67;1.30;;;21.90;88.80;;;;;;4974596;28;20030;-85
2023/06/29 10:24:34;;;;;;;1.65;1.38;;;22.20;83.20;;;;;;4972994;28;20027;-81
2023/06/29 10:27:02;;;;;;;1.58;1.27;;;22.40;82.90;;;;;;4974502;28;20480;-82
2023/06/29 10:29:28;;;;;;;1.23;1.13;;;22.50;83.00;;;;;;4974645;28;20043;-83
2023/06/29 10:31:58;;;;;;;1.20;1.10;;;21.70;80.20;;;;;;4972053;28;20146;-80
2023/06/29 10:34:27;;;;;;;3.00;1.27;;;21.60;83.90;;;;;;4972418;28;20027;-81
2023/06/29 10:36:58;;;;;;;2.72;1.42;;;21.50;86.60;;;;;;4973479;28;20034;-83
2023/06/29 10:39:41;;;;;;;1.88;1.23;;;21.60;86.50;;;;;;4991373;23;20102;-87
2023/06/29 10:42:12;;;;;;;2.72;1.75;;;21.50;83.60;;;;;;4972398;28;20037;-86
2023/06/29 10:44:38;;;;;;;1.83;1.23;;;21.60;86.30;;;;;;4968402;28;20074;-86
2023/06/29 10:47:04;;;;;;;1.70;1.40;;;21.60;85.20;;;;;;4955018;28;20094;-85
2023/06/29 10:49:30;;;;;;;5.55;1.30;;;21.60;82.60;;;;;;4955647;28;20024;-85
2023/06/29 10:52:04;;;;;;;1.73;1.23;;;21.50;79.20;;;;;;4957549;28;20050;-91
2023/06/29 10:54:30;;;;;;;2.45;1.50;;;21.60;85.10;;;;;;4951303;28;20114;-88
2023/06/29 10:57:01;;;;;;;1.58;1.33;;;21.90;81.00;;;;;;4971490;28;20035;-93
2023/06/29 10:59:29;;;;;;;;;;;21.90;83.50;;;;;;4975889;28;20042;-92
2023/06/29 11:01:56;;;;;;;1.38;1.25;;;22.40;79.60;;;;;;4964307;28;19982;-92
2023/06/29 11:04:23;;;;;;;1.90;1.27;;;23.20;78.40;;;;;;4976880;28;20034;-93
2023/06/29 11:06:49;;;;;;;1.40;1.30;;;24.00;76.10;;;;;;4972436;28;20024;-93
2023/06/29 11:09:15;;;;;;;1.23;1.13;;;24.90;71.40;;;;;;4969846;28;20085;-93
2023/06/29 11:14:11;;;;;;;1.90;1.30;;;26.40;64.90;;;;;;4987388;28;20051;-92
2023/06/29 11:16:39;;;;;;;2.00;1.33;;;26.10;64.80;;;;;;4987184;28;20006;-94
2023/06/29 11:19:05;;;;;;;1.42;0.93;;;25.80;64.70;;;;;;5023847;23;20458;-91
2023/06/29 11:21:30;;;;;;;1.25;1.10;;;25.90;66.30;;;;;;4998347;28;20486;-91
2023/06/29 11:23:56;;;;;;;2.15;1.13;;;25.90;63.10;;;;;;5010078;28;20030;-89
2023/06/29 11:26:23;;;;;;;1.27;1.17;;;25.70;63.70;;;;;;5000962;28;20062;-90
2023/06/29 11:28:49;;;;;;;1.38;0.90;;;25.60;63.90;;;;;;5008831;28;20022;-86
2023/06/29 11:31:16;;;;;;;5.78;1.73;;;25.50;63.60;;;;;;4991817;28;20037;-90
2023/06/29 11:33:52;;;;;;;1.85;1.00;;;25.10;65.10;;;;;;4995167;28;20484;-92
2023/06/29 11:36:32;;;;;;;2.08;0.90;;;24.50;66.30;;;;;;4995092;28;20083;-84
2023/06/29 11:39:09;;;;;;;2.65;1.30;;;23.90;67.70;;;;;;5007356;23;20057;-80
2023/06/29 11:41:40;;;;;;;2.35;1.70;;;23.30;70.50;;;;;;4991961;28;20519;-88
2023/06/29 11:44:07;;;;;;;2.58;1.60;;;22.60;74.20;;;;;;4993848;28;20026;-86
2023/06/29 11:46:34;;;;;;;4.28;1.65;;;22.20;80.80;;;;;;4993429;28;20506;-89
2023/06/29 11:49:02;;;;;;;1.90;1.40;;;21.80;82.20;;;;;;4993360;28;20422;-87
2023/06/29 11:51:29;;;;;;;2.47;1.27;;;21.50;84.70;;;;;;5007727;28;20038;-84
2023/06/29 11:53:58;;;;;;;2.85;1.70;;;21.20;83.10;;;;;;4993138;28;20018;-84
2023/06/29 11:56:34;;;;;;;2.70;1.42;;;20.90;87.60;;;;;;5007842;28;21062;-85
2023/06/29 11:59:12;;;;;;;1.75;1.55;;;21.00;86.20;;;;;;5007194;28;20077;-85
2023/06/29 12:01:38;;;;;;;2.03;1.50;;;21.30;85.20;;;;;;5008674;28;20022;-86
2023/06/29 12:04:05;;;;;;;4.82;1.60;;;21.70;84.30;;;;;;4992726;28;20471;-79
2023/06/29 12:06:32;;;;;;;2.67;1.50;;;22.10;82.90;;;;;;4992024;28;20041;-80
2023/06/29 12:08:58;;;;;;;3.00;1.50;;;22.60;78.80;;;;;;4991910;28;20101;-79
2023/06/29 12:11:26;;;;;;;1.80;1.58;;;23.00;78.40;;;;;;5006962;28;20543;-79
2023/06/29 12:13:53;;;;;;;2.85;1.40;;;23.20;72.90;;;;;;4992068;28;20049;-80
2023/06/29 12:16:20;;;;;;;2.10;1.20;;;23.70;75.20;;;;;;4992093;28;20026;-79
2023/06/29 12:18:48;;;;;;;5.13;1.33;;;24.30;70.90;;;;;;4991781;28;20109;-80
2023/06/29 12:21:20;;;;;;;1.58;1.20;;;24.40;69.90;;;;;;4991801;28;20029;-80
2023/06/29 12:23:46;;;;;;;2.55;1.20;;;24.40;73.60;;;;;;4991531;28;20026;-79
2023/06/29 12:26:13;;;;;;;2.72;1.50;;;24.60;67.00;;;;;;4990855;28;20022;-78
2023/06/29 12:28:38;;;;;;;1.48;1.27;;;24.60;67.60;;;;;;4984763;28;20021;-83
2023/06/29 12:31:06;;;;;;;1.92;1.13;;;24.80;68.40;;;;;;4990361;28;20030;-84
2023/06/29 12:33:33;;;;;;;2.42;1.33;;;25.00;65.80;;;;;;5006477;28;20029;-85
2023/06/29 12:35:58;;;;;;;2.15;1.30;;;24.80;65.20;;;;;;5006492;28;20023;-82
2023/06/29 12:38:25;;;;;;;2.13;1.17;;;25.00;67.50;;;;;;4991512;28;20541;-85